createdAt,value
2019-03-30T00:00:01.266Z,1008.56
2019-03-30T00:01:01.248Z,1008.52
2019-03-30T00:02:01.238Z,1008.52
2019-03-30T00:03:01.229Z,1008.49
2019-03-30T00:04:01.226Z,1008.51
2019-03-30T00:05:01.209Z,1008.47
2019-03-30T00:06:01.197Z,1008.46
2019-03-30T00:07:01.184Z,1008.45
2019-03-30T00:08:01.177Z,1008.40
2019-03-30T00:09:01.165Z,1008.41
2019-03-30T00:10:01.154Z,1008.40
2019-03-30T00:11:01.142Z,1008.39
2019-03-30T00:12:01.131Z,1008.36
2019-03-30T00:13:01.120Z,1008.36
2019-03-30T00:14:01.115Z,1008.34
2019-03-30T00:15:01.102Z,1008.30
2019-03-30T00:16:01.089Z,1008.33
2019-03-30T00:17:01.076Z,1008.32
2019-03-30T00:18:01.067Z,1008.32
2019-03-30T00:19:01.057Z,1008.28
2019-03-30T00:20:01.046Z,1008.28
2019-03-30T00:21:01.034Z,1008.26
2019-03-30T00:22:01.024Z,1008.25
2019-03-30T00:23:01.014Z,1008.26
2019-03-30T00:24:01.001Z,1008.25
2019-03-30T00:25:00.991Z,1008.19
2019-03-30T00:26:00.983Z,1008.19
2019-03-30T00:27:02.020Z,1008.20
2019-03-30T00:28:00.959Z,1008.20
2019-03-30T00:29:00.950Z,1008.18
2019-03-30T00:30:00.943Z,1008.17
2019-03-30T00:31:00.928Z,1008.20
2019-03-30T00:32:00.920Z,1008.13
2019-03-30T00:33:00.906Z,1008.12
2019-03-30T00:34:00.908Z,1008.12
2019-03-30T00:35:00.889Z,1008.11
2019-03-30T00:36:00.877Z,1008.10
2019-03-30T00:37:00.864Z,1008.06
2019-03-30T00:38:00.855Z,1008.07
2019-03-30T00:39:00.844Z,1008.05
2019-03-30T00:40:00.842Z,1008.06
2019-03-30T00:41:00.822Z,1008.08
2019-03-30T00:42:00.813Z,1008.03
2019-03-30T00:43:00.803Z,1008.05
2019-03-30T00:44:00.788Z,1008.03
2019-03-30T00:45:00.786Z,1008.05
2019-03-30T00:46:00.768Z,1008.01
2019-03-30T00:47:00.758Z,1008.01
2019-03-30T00:48:00.746Z,1008.04
2019-03-30T00:49:00.736Z,1008.03
2019-03-30T00:50:00.725Z,1008.04
2019-03-30T00:51:00.715Z,1008.08
2019-03-30T00:52:00.704Z,1008.03
2019-03-30T00:53:00.693Z,1007.98
2019-03-30T00:54:00.683Z,1007.99
2019-03-30T00:55:00.672Z,1008.02
2019-03-30T00:56:00.661Z,1007.98
2019-03-30T00:57:00.650Z,1008.01
2019-03-30T00:58:00.641Z,1007.97
2019-03-30T00:59:00.630Z,1007.99
2019-03-30T01:00:01.785Z,1007.95
2019-03-30T01:01:00.608Z,1007.96
2019-03-30T01:02:00.600Z,1007.90
2019-03-30T01:03:00.587Z,1007.92
2019-03-30T01:04:00.576Z,1007.95
2019-03-30T01:05:00.566Z,1007.96
2019-03-30T01:06:00.557Z,1007.86
2019-03-30T01:07:00.548Z,1007.86
2019-03-30T01:08:00.533Z,1007.89
2019-03-30T01:09:00.525Z,1007.88
2019-03-30T01:10:00.513Z,1007.86
2019-03-30T01:11:00.501Z,1007.87
2019-03-30T01:12:00.489Z,1007.85
2019-03-30T01:13:00.480Z,1007.84
2019-03-30T01:14:00.469Z,1007.83
2019-03-30T01:15:00.459Z,1007.78
2019-03-30T01:16:00.447Z,1007.76
2019-03-30T01:17:00.437Z,1007.78
2019-03-30T01:18:00.427Z,1007.75
2019-03-30T01:19:00.418Z,1007.73
2019-03-30T01:20:03.190Z,1007.74
2019-03-30T01:21:00.393Z,1007.72
2019-03-30T01:22:00.383Z,1007.75
2019-03-30T01:23:00.374Z,1007.71
2019-03-30T01:24:00.362Z,1007.70
2019-03-30T01:25:00.402Z,1007.70
2019-03-30T01:26:00.340Z,1007.68
2019-03-30T01:27:00.883Z,1007.70
2019-03-30T01:28:00.318Z,1007.66
2019-03-30T01:29:00.306Z,1007.65
2019-03-30T01:30:00.296Z,1007.68
2019-03-30T01:31:00.287Z,1007.62
2019-03-30T01:32:00.275Z,1007.65
2019-03-30T01:33:00.265Z,1007.68
2019-03-30T01:34:00.253Z,1007.63
2019-03-30T01:35:00.350Z,1007.63
2019-03-30T01:36:00.235Z,1007.61
2019-03-30T01:37:00.221Z,1007.62
2019-03-30T01:38:00.260Z,1007.61
2019-03-30T01:39:00.254Z,1007.59
2019-03-30T01:40:00.316Z,1007.58
2019-03-30T01:41:00.287Z,1007.59
2019-03-30T01:42:00.166Z,1007.57
2019-03-30T01:43:00.256Z,1007.61
2019-03-30T01:44:00.195Z,1007.55
2019-03-30T01:45:00.252Z,1007.60
2019-03-30T01:46:01.875Z,1007.56
2019-03-30T01:47:00.113Z,1007.54
2019-03-30T01:48:00.106Z,1007.59
2019-03-30T01:49:00.094Z,1007.56
2019-03-30T01:50:00.363Z,1007.50
2019-03-30T01:51:00.070Z,1007.48
2019-03-30T01:52:00.066Z,1007.51
2019-03-30T01:53:00.055Z,1007.49
2019-03-30T01:54:00.055Z,1007.50
2019-03-30T01:55:00.027Z,1007.44
2019-03-30T01:56:00.015Z,1007.40
2019-03-30T01:57:00.004Z,1007.42
2019-03-30T01:57:59.994Z,1007.42
2019-03-30T01:58:59.983Z,1007.39
2019-03-30T01:59:59.971Z,1007.41
2019-03-30T02:00:59.960Z,1007.39
2019-03-30T02:01:59.950Z,1007.41
2019-03-30T02:02:59.941Z,1007.38
2019-03-30T02:03:59.927Z,1007.36
2019-03-30T02:04:59.916Z,1007.34
2019-03-30T02:05:59.906Z,1007.27
2019-03-30T02:06:59.896Z,1007.31
2019-03-30T02:07:59.884Z,1007.30
2019-03-30T02:08:59.874Z,1007.27
2019-03-30T02:09:59.862Z,1007.26
2019-03-30T02:10:59.852Z,1007.25
2019-03-30T02:11:59.840Z,1007.23
2019-03-30T02:12:59.830Z,1007.24
2019-03-30T02:13:59.819Z,1007.22
2019-03-30T02:14:59.811Z,1007.21
2019-03-30T02:15:59.797Z,1007.20
2019-03-30T02:16:59.786Z,1007.17
2019-03-30T02:17:59.776Z,1007.17
2019-03-30T02:18:59.765Z,1007.17
2019-03-30T02:19:59.753Z,1007.13
2019-03-30T02:20:59.745Z,1007.15
2019-03-30T02:21:59.734Z,1007.13
2019-03-30T02:22:59.722Z,1007.12
2019-03-30T02:23:59.710Z,1007.14
2019-03-30T02:24:59.701Z,1007.12
2019-03-30T02:25:59.689Z,1007.17
2019-03-30T02:26:59.678Z,1007.14
2019-03-30T02:27:59.670Z,1007.13
2019-03-30T02:28:59.660Z,1007.16
2019-03-30T02:29:59.647Z,1007.12
2019-03-30T02:30:59.636Z,1007.11
2019-03-30T02:31:59.625Z,1007.09
2019-03-30T02:32:59.618Z,1007.14
2019-03-30T02:33:59.613Z,1007.11
2019-03-30T02:34:59.592Z,1007.10
2019-03-30T02:35:59.582Z,1007.07
2019-03-30T02:36:59.571Z,1007.12
2019-03-30T02:37:59.560Z,1007.10
2019-03-30T02:38:59.559Z,1007.09
2019-03-30T02:39:59.542Z,1007.04
2019-03-30T02:40:59.528Z,1007.05
2019-03-30T02:41:59.520Z,1007.08
2019-03-30T02:42:59.510Z,1007.05
2019-03-30T02:43:59.496Z,1007.05
2019-03-30T02:44:59.484Z,1007.02
2019-03-30T02:45:59.477Z,1007.06
2019-03-30T02:46:59.467Z,1007.02
2019-03-30T02:47:59.453Z,1007.05
2019-03-30T02:48:59.443Z,1007.04
2019-03-30T02:49:59.444Z,1007.05
2019-03-30T02:50:59.422Z,1007.03
2019-03-30T02:51:59.409Z,1007.02
2019-03-30T02:52:59.399Z,1007.04
2019-03-30T02:53:59.391Z,1007.04
2019-03-30T02:54:59.380Z,1007.02
2019-03-30T02:55:59.367Z,1007.02
2019-03-30T02:56:59.357Z,1007.01
2019-03-30T02:57:59.350Z,1007.03
2019-03-30T02:58:59.338Z,1007.04
2019-03-30T02:59:59.323Z,1007.02
2019-03-30T03:00:59.324Z,1006.98
2019-03-30T03:01:59.302Z,1007.00
2019-03-30T03:02:59.291Z,1006.97
2019-03-30T03:03:59.280Z,1006.97
2019-03-30T03:04:59.272Z,1006.99
2019-03-30T03:05:59.263Z,1006.97
2019-03-30T03:06:59.249Z,1006.96
2019-03-30T03:07:59.237Z,1006.99
2019-03-30T03:08:59.232Z,1006.97
2019-03-30T03:09:59.242Z,1006.97
2019-03-30T03:10:59.215Z,1006.97
2019-03-30T03:11:59.193Z,1006.95
2019-03-30T03:12:59.184Z,1006.95
2019-03-30T03:13:59.173Z,1006.93
2019-03-30T03:14:59.162Z,1006.95
2019-03-30T03:15:59.152Z,1006.92
2019-03-30T03:16:59.139Z,1006.92
2019-03-30T03:17:59.129Z,1006.94
2019-03-30T03:18:59.147Z,1006.89
2019-03-30T03:19:59.108Z,1006.93
2019-03-30T03:21:07.446Z,1006.92
2019-03-30T03:21:59.088Z,1006.88
2019-03-30T03:22:59.075Z,1006.89
2019-03-30T03:23:59.064Z,1006.88
2019-03-30T03:24:59.061Z,1006.82
2019-03-30T03:25:59.057Z,1006.84
2019-03-30T03:26:59.031Z,1006.84
2019-03-30T03:27:59.029Z,1006.87
2019-03-30T03:28:59.009Z,1006.84
2019-03-30T03:29:59.001Z,1006.88
2019-03-30T03:30:58.991Z,1006.88
2019-03-30T03:31:58.978Z,1006.92
2019-03-30T03:32:58.967Z,1006.90
2019-03-30T03:33:58.999Z,1006.90
2019-03-30T03:34:58.964Z,1006.89
2019-03-30T03:35:58.997Z,1006.86
2019-03-30T03:36:58.922Z,1006.88
2019-03-30T03:37:58.912Z,1006.84
2019-03-30T03:38:58.901Z,1006.81
2019-03-30T03:39:58.890Z,1006.80
2019-03-30T03:40:58.881Z,1006.82
2019-03-30T03:41:58.869Z,1006.78
2019-03-30T03:42:58.858Z,1006.79
2019-03-30T03:43:58.846Z,1006.79
2019-03-30T03:44:58.834Z,1006.79
2019-03-30T03:45:58.825Z,1006.79
2019-03-30T03:46:58.813Z,1006.77
2019-03-30T03:47:58.802Z,1006.77
2019-03-30T03:48:58.791Z,1006.75
2019-03-30T03:49:58.797Z,1006.74
2019-03-30T03:50:58.911Z,1006.75
2019-03-30T03:51:58.770Z,1006.78
2019-03-30T03:52:58.749Z,1006.74
2019-03-30T03:53:58.737Z,1006.74
2019-03-30T03:54:58.734Z,1006.77
2019-03-30T03:55:58.713Z,1006.73
2019-03-30T03:56:58.705Z,1006.74
2019-03-30T03:57:58.692Z,1006.72
2019-03-30T03:58:58.681Z,1006.71
2019-03-30T03:59:58.671Z,1006.70
2019-03-30T04:00:58.659Z,1006.71
2019-03-30T04:01:58.649Z,1006.67
2019-03-30T04:02:58.638Z,1006.70
2019-03-30T04:03:58.646Z,1006.67
2019-03-30T04:04:58.624Z,1006.68
2019-03-30T04:05:58.605Z,1006.63
2019-03-30T04:06:58.594Z,1006.61
2019-03-30T04:07:58.581Z,1006.63
2019-03-30T04:08:58.574Z,1006.59
2019-03-30T04:09:58.561Z,1006.59
2019-03-30T04:10:58.548Z,1006.59
2019-03-30T04:11:58.539Z,1006.58
2019-03-30T04:12:58.527Z,1006.56
2019-03-30T04:13:58.516Z,1006.55
2019-03-30T04:14:58.510Z,1006.55
2019-03-30T04:15:58.496Z,1006.54
2019-03-30T04:16:58.488Z,1006.51
2019-03-30T04:17:58.480Z,1006.53
2019-03-30T04:18:58.462Z,1006.53
2019-03-30T04:19:58.449Z,1006.50
2019-03-30T04:20:58.439Z,1006.50
2019-03-30T04:21:58.429Z,1006.48
2019-03-30T04:22:58.430Z,1006.48
2019-03-30T04:23:58.407Z,1006.46
2019-03-30T04:24:58.395Z,1006.43
2019-03-30T04:25:58.388Z,1006.43
2019-03-30T04:26:58.373Z,1006.43
2019-03-30T04:27:58.361Z,1006.45
2019-03-30T04:28:58.356Z,1006.44
2019-03-30T04:29:58.341Z,1006.39
2019-03-30T04:30:58.330Z,1006.42
2019-03-30T04:31:58.323Z,1006.39
2019-03-30T04:32:58.311Z,1006.37
2019-03-30T04:33:58.296Z,1006.39
2019-03-30T04:34:58.343Z,1006.38
2019-03-30T04:35:58.273Z,1006.33
2019-03-30T04:36:58.262Z,1006.35
2019-03-30T04:37:58.252Z,1006.36
2019-03-30T04:38:58.244Z,1006.36
2019-03-30T04:39:58.260Z,1006.34
2019-03-30T04:40:58.220Z,1006.30
2019-03-30T04:41:58.215Z,1006.29
2019-03-30T04:42:58.195Z,1006.28
2019-03-30T04:43:58.184Z,1006.27
2019-03-30T04:44:58.172Z,1006.26
2019-03-30T04:45:58.162Z,1006.25
2019-03-30T04:46:58.151Z,1006.26
2019-03-30T04:47:58.143Z,1006.25
2019-03-30T04:48:58.138Z,1006.27
2019-03-30T04:49:58.121Z,1006.27
2019-03-30T04:50:58.106Z,1006.28
2019-03-30T04:51:58.282Z,1006.26
2019-03-30T04:52:58.083Z,1006.27
2019-03-30T04:53:58.072Z,1006.26
2019-03-30T04:54:58.070Z,1006.27
2019-03-30T04:55:58.051Z,1006.22
2019-03-30T04:56:58.039Z,1006.22
2019-03-30T04:57:58.110Z,1006.23
2019-03-30T04:58:58.018Z,1006.20
2019-03-30T04:59:58.006Z,1006.19
2019-03-30T05:00:57.993Z,1006.22
2019-03-30T05:01:57.983Z,1006.22
2019-03-30T05:02:57.972Z,1006.18
2019-03-30T05:03:57.965Z,1006.21
2019-03-30T05:04:57.949Z,1006.18
2019-03-30T05:05:57.942Z,1006.17
2019-03-30T05:06:57.926Z,1006.22
2019-03-30T05:07:57.918Z,1006.20
2019-03-30T05:08:57.905Z,1006.18
2019-03-30T05:09:57.899Z,1006.17
2019-03-30T05:10:57.882Z,1006.15
2019-03-30T05:11:57.871Z,1006.14
2019-03-30T05:12:57.859Z,1006.19
2019-03-30T05:13:57.850Z,1006.14
2019-03-30T05:14:57.839Z,1006.14
2019-03-30T05:15:57.829Z,1006.19
2019-03-30T05:16:57.818Z,1006.17
2019-03-30T05:17:57.804Z,1006.12
2019-03-30T05:18:57.793Z,1006.17
2019-03-30T05:19:57.781Z,1006.18
2019-03-30T05:20:57.770Z,1006.14
2019-03-30T05:22:11.130Z,1006.14
2019-03-30T05:22:57.749Z,1006.15
2019-03-30T05:23:57.737Z,1006.14
2019-03-30T05:24:57.726Z,1006.15
2019-03-30T05:25:57.715Z,1006.14
2019-03-30T05:26:57.704Z,1006.10
2019-03-30T05:27:57.692Z,1006.10
2019-03-30T05:28:57.684Z,1006.14
2019-03-30T05:29:57.670Z,1006.16
2019-03-30T05:30:57.659Z,1006.13
2019-03-30T05:31:57.649Z,1006.15
2019-03-30T05:33:05.647Z,1006.15
2019-03-30T05:33:57.625Z,1006.14
2019-03-30T05:34:57.618Z,1006.12
2019-03-30T05:35:57.607Z,1006.10
2019-03-30T05:36:57.591Z,1006.12
2019-03-30T05:37:57.599Z,1006.13
2019-03-30T05:38:57.570Z,1006.11
2019-03-30T05:39:57.561Z,1006.12
2019-03-30T05:40:57.548Z,1006.11
2019-03-30T05:41:57.536Z,1006.10
2019-03-30T05:42:57.526Z,1006.09
2019-03-30T05:43:57.519Z,1006.11
2019-03-30T05:44:57.936Z,1006.10
2019-03-30T05:45:57.504Z,1006.14
2019-03-30T05:46:57.487Z,1006.12
2019-03-30T05:47:57.472Z,1006.13
2019-03-30T05:48:57.466Z,1006.12
2019-03-30T05:49:57.448Z,1006.10
2019-03-30T05:50:57.440Z,1006.07
2019-03-30T05:51:57.444Z,1006.06
2019-03-30T05:52:57.415Z,1006.06
2019-03-30T05:53:57.402Z,1006.04
2019-03-30T05:54:57.390Z,1006.03
2019-03-30T05:55:57.379Z,1006.05
2019-03-30T05:56:57.368Z,1006.09
2019-03-30T05:57:57.357Z,1006.08
2019-03-30T05:58:57.345Z,1006.05
2019-03-30T05:59:57.343Z,1006.09
2019-03-30T06:00:57.323Z,1006.09
2019-03-30T06:01:57.313Z,1006.08
2019-03-30T06:02:57.302Z,1006.11
2019-03-30T06:03:57.290Z,1006.09
2019-03-30T06:04:58.667Z,1006.11
2019-03-30T06:05:57.352Z,1006.12
2019-03-30T06:06:57.258Z,1006.09
2019-03-30T06:07:57.247Z,1006.10
2019-03-30T06:08:57.236Z,1006.10
2019-03-30T06:09:57.225Z,1006.11
2019-03-30T06:10:57.214Z,1006.13
2019-03-30T06:11:57.203Z,1006.11
2019-03-30T06:12:57.192Z,1006.09
2019-03-30T06:13:57.183Z,1006.11
2019-03-30T06:14:57.171Z,1006.15
2019-03-30T06:15:57.160Z,1006.14
2019-03-30T06:16:57.149Z,1006.20
2019-03-30T06:17:57.138Z,1006.18
2019-03-30T06:18:57.128Z,1006.15
2019-03-30T06:19:57.116Z,1006.19
2019-03-30T06:20:57.106Z,1006.18
2019-03-30T06:21:57.095Z,1006.19
2019-03-30T06:22:57.084Z,1006.21
2019-03-30T06:23:57.073Z,1006.24
2019-03-30T06:24:57.062Z,1006.18
2019-03-30T06:25:57.054Z,1006.19
2019-03-30T06:26:57.042Z,1006.25
2019-03-30T06:27:57.033Z,1006.25
2019-03-30T06:28:57.021Z,1006.22
2019-03-30T06:29:57.010Z,1006.25
2019-03-30T06:30:57.002Z,1006.22
2019-03-30T06:31:56.989Z,1006.24
2019-03-30T06:32:56.978Z,1006.24
2019-03-30T06:33:56.968Z,1006.25
2019-03-30T06:34:56.958Z,1006.27
2019-03-30T06:35:56.947Z,1006.25
2019-03-30T06:36:56.936Z,1006.23
2019-03-30T06:37:56.929Z,1006.24
2019-03-30T06:38:56.916Z,1006.22
2019-03-30T06:39:56.906Z,1006.20
2019-03-30T06:40:56.895Z,1006.22
2019-03-30T06:41:56.886Z,1006.22
2019-03-30T06:42:56.876Z,1006.26
2019-03-30T06:43:56.865Z,1006.27
2019-03-30T06:44:56.859Z,1006.27
2019-03-30T06:45:56.845Z,1006.26
2019-03-30T06:46:56.836Z,1006.26
2019-03-30T06:47:56.826Z,1006.30
2019-03-30T06:48:56.817Z,1006.28
2019-03-30T06:49:56.815Z,1006.30
2019-03-30T06:50:56.797Z,1006.30
2019-03-30T06:51:56.789Z,1006.32
2019-03-30T06:52:58.615Z,1006.31
2019-03-30T06:53:56.768Z,1006.31
2019-03-30T06:54:56.758Z,1006.33
2019-03-30T06:55:56.748Z,1006.28
2019-03-30T06:56:56.740Z,1006.29
2019-03-30T06:57:56.730Z,1006.33
2019-03-30T06:58:56.720Z,1006.34
2019-03-30T06:59:56.711Z,1006.36
2019-03-30T07:00:56.702Z,1006.34
2019-03-30T07:01:56.756Z,1006.31
2019-03-30T07:02:56.684Z,1006.32
2019-03-30T07:03:56.675Z,1006.34
2019-03-30T07:04:56.668Z,1006.35
2019-03-30T07:05:56.657Z,1006.32
2019-03-30T07:06:56.647Z,1006.35
2019-03-30T07:07:56.639Z,1006.30
2019-03-30T07:08:56.629Z,1006.29
2019-03-30T07:09:56.621Z,1006.27
2019-03-30T07:10:56.611Z,1006.24
2019-03-30T07:11:56.603Z,1006.26
2019-03-30T07:12:56.596Z,1006.24
2019-03-30T07:13:56.592Z,1006.30
2019-03-30T07:14:56.577Z,1006.30
2019-03-30T07:15:56.568Z,1006.28
2019-03-30T07:16:56.622Z,1006.28
2019-03-30T07:17:56.549Z,1006.28
2019-03-30T07:18:56.544Z,1006.30
2019-03-30T07:19:56.532Z,1006.27
2019-03-30T07:20:56.524Z,1006.27
2019-03-30T07:21:56.516Z,1006.27
2019-03-30T07:23:10.775Z,1006.28
2019-03-30T07:23:56.498Z,1006.24
2019-03-30T07:24:56.491Z,1006.24
2019-03-30T07:25:56.482Z,1006.28
2019-03-30T07:26:56.473Z,1006.22
2019-03-30T07:27:56.464Z,1006.21
2019-03-30T07:28:56.457Z,1006.19
2019-03-30T07:29:56.453Z,1006.22
2019-03-30T07:30:56.440Z,1006.25
2019-03-30T07:31:56.434Z,1006.25
2019-03-30T07:32:56.423Z,1006.22
2019-03-30T07:33:56.415Z,1006.22
2019-03-30T07:34:56.408Z,1006.25
2019-03-30T07:35:56.397Z,1006.26
2019-03-30T07:36:56.389Z,1006.24
2019-03-30T07:37:56.382Z,1006.27
2019-03-30T07:38:56.375Z,1006.26
2019-03-30T07:39:56.368Z,1006.32
2019-03-30T07:40:56.359Z,1006.17
2019-03-30T07:41:56.353Z,1006.26
2019-03-30T07:42:56.347Z,1006.26
2019-03-30T07:43:56.346Z,1006.33
2019-03-30T07:44:56.333Z,1006.32
2019-03-30T07:45:56.328Z,1006.30
2019-03-30T07:46:56.322Z,1006.34
2019-03-30T07:47:56.316Z,1006.31
2019-03-30T07:48:56.331Z,1006.28
2019-03-30T07:49:56.309Z,1006.29
2019-03-30T07:50:56.303Z,1006.33
2019-03-30T07:51:56.299Z,1006.35
2019-03-30T07:52:56.295Z,1006.30
2019-03-30T07:53:56.294Z,1006.30
2019-03-30T07:54:56.289Z,1006.30
2019-03-30T07:56:07.780Z,1006.36
2019-03-30T07:57:05.337Z,1006.40
2019-03-30T07:57:56.336Z,1006.39
2019-03-30T07:58:56.279Z,1006.37
2019-03-30T07:59:56.274Z,1006.40
2019-03-30T08:00:56.272Z,1006.39
2019-03-30T08:01:56.270Z,1006.38
2019-03-30T08:02:56.268Z,1006.41
2019-03-30T08:03:56.266Z,1006.42
2019-03-30T08:04:56.267Z,1006.40
2019-03-30T08:05:56.264Z,1006.41
2019-03-30T08:06:56.261Z,1006.41
2019-03-30T08:07:56.259Z,1006.40
2019-03-30T08:08:56.258Z,1006.35
2019-03-30T08:09:56.259Z,1006.40
2019-03-30T08:10:56.256Z,1006.39
2019-03-30T08:11:56.254Z,1006.40
2019-03-30T08:12:56.253Z,1006.40
2019-03-30T08:13:56.252Z,1006.44
2019-03-30T08:14:56.255Z,1006.40
2019-03-30T08:15:56.252Z,1006.44
2019-03-30T08:16:56.251Z,1006.40
2019-03-30T08:17:56.251Z,1006.45
2019-03-30T08:18:56.251Z,1006.52
2019-03-30T08:19:56.253Z,1006.52
2019-03-30T08:20:56.252Z,1006.50
2019-03-30T08:21:56.251Z,1006.47
2019-03-30T08:22:56.252Z,1006.52
2019-03-30T08:23:56.252Z,1006.52
2019-03-30T08:24:56.253Z,1006.54
2019-03-30T08:25:56.254Z,1006.58
2019-03-30T08:26:56.256Z,1006.57
2019-03-30T08:27:56.256Z,1006.59
2019-03-30T08:28:56.257Z,1006.58
2019-03-30T08:29:56.259Z,1006.57
2019-03-30T08:30:56.261Z,1006.60
2019-03-30T08:31:56.263Z,1006.68
2019-03-30T08:32:56.263Z,1006.66
2019-03-30T08:33:56.264Z,1006.64
2019-03-30T08:34:56.268Z,1006.66
2019-03-30T08:35:56.265Z,1006.61
2019-03-30T08:36:59.197Z,1006.62
2019-03-30T08:37:56.273Z,1006.62
2019-03-30T08:38:56.269Z,1006.65
2019-03-30T08:39:56.275Z,1006.66
2019-03-30T08:40:56.270Z,1006.70
2019-03-30T08:41:56.271Z,1006.65
2019-03-30T08:42:56.318Z,1006.65
2019-03-30T08:43:56.281Z,1006.66
2019-03-30T08:44:56.275Z,1006.76
2019-03-30T08:45:56.276Z,1006.67
2019-03-30T08:46:56.277Z,1006.72
2019-03-30T08:47:56.278Z,1006.64
2019-03-30T08:48:56.280Z,1006.59
2019-03-30T08:49:56.281Z,1006.59
2019-03-30T08:50:56.284Z,1006.70
2019-03-30T08:51:56.285Z,1006.69
2019-03-30T08:52:56.287Z,1006.63
2019-03-30T08:53:56.295Z,1006.65
2019-03-30T08:54:56.294Z,1006.70
2019-03-30T08:55:56.294Z,1006.72
2019-03-30T08:56:56.296Z,1006.66
2019-03-30T08:57:56.302Z,1006.69
2019-03-30T08:58:56.302Z,1006.68
2019-03-30T08:59:56.303Z,1006.71
2019-03-30T09:00:56.307Z,1006.66
2019-03-30T09:01:56.311Z,1006.72
2019-03-30T09:02:56.316Z,1006.73
2019-03-30T09:03:56.319Z,1006.74
2019-03-30T09:04:56.325Z,1006.65
2019-03-30T09:05:56.326Z,1006.74
2019-03-30T09:06:56.335Z,1006.66
2019-03-30T09:07:56.331Z,1006.73
2019-03-30T09:08:56.334Z,1006.76
2019-03-30T09:09:56.340Z,1006.77
2019-03-30T09:10:56.342Z,1006.73
2019-03-30T09:11:56.345Z,1006.73
2019-03-30T09:12:56.349Z,1006.72
2019-03-30T09:13:56.353Z,1006.74
2019-03-30T09:14:56.357Z,1006.72
2019-03-30T09:15:56.361Z,1006.76
2019-03-30T09:16:56.368Z,1006.70
2019-03-30T09:17:56.370Z,1006.72
2019-03-30T09:18:56.376Z,1006.69
2019-03-30T09:19:56.379Z,1006.68
2019-03-30T09:20:56.386Z,1006.70
2019-03-30T09:21:56.388Z,1006.68
2019-03-30T09:22:56.393Z,1006.74
2019-03-30T09:24:08.934Z,1006.66
2019-03-30T09:24:56.401Z,1006.65
2019-03-30T09:25:56.406Z,1006.62
2019-03-30T09:26:56.472Z,1006.63
2019-03-30T09:27:56.415Z,1006.60
2019-03-30T09:28:56.420Z,1006.66
2019-03-30T09:29:56.425Z,1006.56
2019-03-30T09:30:56.431Z,1006.63
2019-03-30T09:31:56.569Z,1006.65
2019-03-30T09:32:56.441Z,1006.61
2019-03-30T09:33:56.446Z,1006.64
2019-03-30T09:34:56.452Z,1006.60
2019-03-30T09:35:56.457Z,1006.54
2019-03-30T09:36:56.548Z,1006.55
2019-03-30T09:37:56.468Z,1006.55
2019-03-30T09:38:56.476Z,1006.53
2019-03-30T09:39:56.536Z,1006.57
2019-03-30T09:40:56.485Z,1006.62
2019-03-30T09:41:56.492Z,1006.55
2019-03-30T09:42:56.498Z,1006.50
2019-03-30T09:43:56.506Z,1006.53
2019-03-30T09:44:56.509Z,1006.54
2019-03-30T09:45:56.516Z,1006.58
2019-03-30T09:46:56.522Z,1006.66
2019-03-30T09:47:56.528Z,1006.58
2019-03-30T09:48:56.534Z,1006.58
2019-03-30T09:49:56.538Z,1006.62
2019-03-30T09:50:56.551Z,1006.54
2019-03-30T09:51:56.552Z,1006.53
2019-03-30T09:52:56.561Z,1006.56
2019-03-30T09:53:56.560Z,1006.49
2019-03-30T09:54:56.565Z,1006.50
2019-03-30T09:55:56.571Z,1006.46
2019-03-30T09:56:56.576Z,1006.47
2019-03-30T09:57:56.581Z,1006.47
2019-03-30T09:58:56.590Z,1006.40
2019-03-30T09:59:56.593Z,1006.40
2019-03-30T10:00:56.599Z,1006.44
2019-03-30T10:01:56.605Z,1006.42
2019-03-30T10:02:56.612Z,1006.42
2019-03-30T10:03:56.628Z,1006.45
2019-03-30T10:04:56.624Z,1006.45
2019-03-30T10:05:56.629Z,1006.43
2019-03-30T10:06:56.646Z,1006.41
2019-03-30T10:07:56.641Z,1006.41
2019-03-30T10:08:56.647Z,1006.47
2019-03-30T10:09:56.653Z,1006.39
2019-03-30T10:10:56.660Z,1006.39
2019-03-30T10:11:56.665Z,1006.42
2019-03-30T10:12:56.671Z,1006.37
2019-03-30T10:13:56.677Z,1006.42
2019-03-30T10:14:56.683Z,1006.39
2019-03-30T10:15:56.689Z,1006.33
2019-03-30T10:16:56.703Z,1006.38
2019-03-30T10:17:56.702Z,1006.43
2019-03-30T10:18:56.712Z,1006.40
2019-03-30T10:20:04.170Z,1006.46
2019-03-30T10:20:56.721Z,1006.45
2019-03-30T10:21:56.731Z,1006.40
2019-03-30T10:22:56.735Z,1006.37
2019-03-30T10:23:56.738Z,1006.36
2019-03-30T10:24:58.407Z,1006.35
2019-03-30T10:25:56.749Z,1006.41
2019-03-30T10:26:56.757Z,1006.43
2019-03-30T10:27:56.761Z,1006.41
2019-03-30T10:28:56.765Z,1006.29
2019-03-30T10:29:56.772Z,1006.44
2019-03-30T10:30:56.778Z,1006.46
2019-03-30T10:31:59.762Z,1006.36
2019-03-30T10:32:56.790Z,1006.39
2019-03-30T10:33:56.797Z,1006.38
2019-03-30T10:34:56.801Z,1006.42
2019-03-30T10:35:56.806Z,1006.43
2019-03-30T10:36:56.812Z,1006.41
2019-03-30T10:37:56.869Z,1006.38
2019-03-30T10:38:56.826Z,1006.39
2019-03-30T10:39:56.833Z,1006.44
2019-03-30T10:40:56.838Z,1006.43
2019-03-30T10:41:56.845Z,1006.39
2019-03-30T10:42:56.851Z,1006.44
2019-03-30T10:43:56.857Z,1006.41
2019-03-30T10:44:56.863Z,1006.42
2019-03-30T10:45:56.871Z,1006.40
2019-03-30T10:46:56.877Z,1006.47
2019-03-30T10:47:56.882Z,1006.42
2019-03-30T10:48:56.888Z,1006.39
2019-03-30T10:49:56.895Z,1006.39
2019-03-30T10:50:56.903Z,1006.42
2019-03-30T10:51:56.905Z,1006.35
2019-03-30T10:52:56.914Z,1006.35
2019-03-30T10:53:56.922Z,1006.34
2019-03-30T10:54:56.924Z,1006.34
2019-03-30T10:55:56.929Z,1006.30
2019-03-30T10:56:56.937Z,1006.28
2019-03-30T10:57:58.541Z,1006.37
2019-03-30T10:58:56.948Z,1006.39
2019-03-30T10:59:56.955Z,1006.35
2019-03-30T11:00:56.962Z,1006.36
2019-03-30T11:01:56.966Z,1006.32
2019-03-30T11:02:56.973Z,1006.34
2019-03-30T11:03:56.978Z,1006.27
2019-03-30T11:04:57.063Z,1006.32
2019-03-30T11:05:56.991Z,1006.31
2019-03-30T11:06:57.000Z,1006.28
2019-03-30T11:07:57.004Z,1006.22
2019-03-30T11:08:57.010Z,1006.27
2019-03-30T11:09:57.023Z,1006.26
2019-03-30T11:10:57.024Z,1006.22
2019-03-30T11:11:57.028Z,1006.20
2019-03-30T11:12:57.035Z,1006.26
2019-03-30T11:13:57.040Z,1006.33
2019-03-30T11:14:57.049Z,1006.28
2019-03-30T11:15:57.053Z,1006.25
2019-03-30T11:16:57.060Z,1006.22
2019-03-30T11:17:57.064Z,1006.20
2019-03-30T11:18:57.075Z,1006.24
2019-03-30T11:19:57.077Z,1006.22
2019-03-30T11:20:57.083Z,1006.21
2019-03-30T11:21:57.090Z,1006.18
2019-03-30T11:22:57.098Z,1006.14
2019-03-30T11:23:57.102Z,1006.14
2019-03-30T11:25:07.218Z,1006.14
2019-03-30T11:25:57.118Z,1006.12
2019-03-30T11:26:57.122Z,1006.08
2019-03-30T11:27:57.129Z,1006.11
2019-03-30T11:28:57.135Z,1006.06
2019-03-30T11:29:57.146Z,1006.08
2019-03-30T11:30:57.149Z,1006.07
2019-03-30T11:31:57.156Z,1006.08
2019-03-30T11:32:57.162Z,1006.07
2019-03-30T11:33:57.169Z,1006.10
2019-03-30T11:34:57.177Z,1006.05
2019-03-30T11:35:57.183Z,1006.10
2019-03-30T11:36:57.190Z,1006.07
2019-03-30T11:37:57.196Z,1006.06
2019-03-30T11:38:57.275Z,1006.01
2019-03-30T11:39:57.207Z,1006.03
2019-03-30T11:40:57.215Z,1005.99
2019-03-30T11:41:57.219Z,1006.00
2019-03-30T11:42:57.226Z,1005.98
2019-03-30T11:43:57.233Z,1006.00
2019-03-30T11:44:57.238Z,1005.96
2019-03-30T11:45:57.246Z,1005.99
2019-03-30T11:46:57.248Z,1005.98
2019-03-30T11:47:57.254Z,1005.92
2019-03-30T11:48:57.261Z,1005.84
2019-03-30T11:49:57.278Z,1005.91
2019-03-30T11:50:57.273Z,1005.89
2019-03-30T11:51:57.277Z,1005.94
2019-03-30T11:52:57.283Z,1005.93
2019-03-30T11:53:57.289Z,1005.98
2019-03-30T11:54:57.297Z,1005.97
2019-03-30T11:55:57.300Z,1005.92
2019-03-30T11:56:57.306Z,1005.89
2019-03-30T11:57:57.320Z,1005.88
2019-03-30T11:58:57.318Z,1005.78
2019-03-30T11:59:57.323Z,1005.85
2019-03-30T12:00:57.329Z,1005.85
2019-03-30T12:01:57.335Z,1005.85
2019-03-30T12:02:57.341Z,1005.87
2019-03-30T12:03:57.345Z,1005.85
2019-03-30T12:04:57.352Z,1005.85